createdAt,value
2022-11-11T00:00:27.956Z,93.70
2022-11-11T00:03:09.215Z,93.65
2022-11-11T00:05:50.582Z,93.48
2022-11-11T00:08:32.590Z,93.36
2022-11-11T00:11:14.872Z,93.21
2022-11-11T00:13:55.894Z,93.16
2022-11-11T00:16:54.970Z,93.26
2022-11-11T00:19:55.121Z,93.30
2022-11-11T00:22:54.782Z,93.25
2022-11-11T00:25:37.221Z,93.55
2022-11-11T00:28:18.488Z,93.45
2022-11-11T00:31:10.917Z,93.41
2022-11-11T00:33:53.407Z,93.31
2022-11-11T00:36:34.828Z,93.23
2022-11-11T00:39:16.206Z,93.13
2022-11-11T00:41:57.670Z,92.84
2022-11-11T00:44:38.644Z,92.84
2022-11-11T00:47:38.629Z,92.82
2022-11-11T00:50:40.764Z,92.92
2022-11-11T00:53:27.115Z,92.80
2022-11-11T00:56:08.723Z,92.70
2022-11-11T00:58:51.039Z,92.65
2022-11-11T01:01:34.310Z,92.72
2022-11-11T01:04:15.634Z,92.83
2022-11-11T01:06:56.761Z,92.75
2022-11-11T01:09:37.852Z,92.58
2022-11-11T01:12:18.850Z,92.90
2022-11-11T01:15:00.132Z,92.83
2022-11-11T01:17:41.764Z,92.45
2022-11-11T01:20:23.190Z,92.28
2022-11-11T01:23:06.201Z,92.04
2022-11-11T01:25:47.883Z,92.12
2022-11-11T01:28:29.308Z,92.34
2022-11-11T01:31:14.446Z,92.46
2022-11-11T01:33:55.891Z,92.53
2022-11-11T01:36:37.549Z,92.69
2022-11-11T01:39:18.836Z,93.06
2022-11-11T01:42:02.131Z,92.99
2022-11-11T01:44:47.055Z,92.97
2022-11-11T01:48:16.692Z,93.16
2022-11-11T01:50:49.938Z,93.02
2022-11-11T01:53:31.295Z,92.82
2022-11-11T01:56:12.771Z,92.76
2022-11-11T01:58:57.351Z,92.65
2022-11-11T02:01:39.560Z,92.47
2022-11-11T02:04:40.230Z,92.24
2022-11-11T02:07:22.788Z,92.55
2022-11-11T02:10:08.658Z,92.21
2022-11-11T02:13:08.391Z,92.30
2022-11-11T02:15:49.757Z,92.12
2022-11-11T02:18:32.771Z,92.36
2022-11-11T02:21:20.615Z,92.76
2022-11-11T02:24:05.146Z,92.81
2022-11-11T02:26:48.539Z,92.89
2022-11-11T02:29:31.479Z,92.78
2022-11-11T02:32:12.458Z,92.58
2022-11-11T02:34:53.957Z,93.05
2022-11-11T02:37:35.343Z,93.29
2022-11-11T02:40:19.530Z,92.88
2022-11-11T02:43:00.940Z,92.38
2022-11-11T02:45:42.098Z,92.34
2022-11-11T02:48:24.987Z,92.55
2022-11-11T02:51:07.369Z,92.70
2022-11-11T02:53:48.441Z,92.91
2022-11-11T02:56:48.207Z,92.79
2022-11-11T02:59:30.589Z,92.71
2022-11-11T03:02:12.581Z,92.98
2022-11-11T03:04:57.927Z,92.79
2022-11-11T03:07:39.538Z,92.51
2022-11-11T03:10:21.315Z,92.59
2022-11-11T03:13:02.508Z,92.82
2022-11-11T03:15:44.067Z,93.35
2022-11-11T03:18:25.484Z,93.18
2022-11-11T03:21:46.832Z,93.44
2022-11-11T03:24:08.002Z,93.23
2022-11-11T03:26:49.513Z,93.26
2022-11-11T03:29:30.886Z,93.78
2022-11-11T03:32:12.005Z,93.88
2022-11-11T03:34:53.064Z,94.11
2022-11-11T03:37:52.210Z,94.15
2022-11-11T03:40:33.508Z,94.29
2022-11-11T03:43:17.397Z,94.32
2022-11-11T03:46:00.654Z,94.49
2022-11-11T03:48:41.894Z,94.25
2022-11-11T03:51:22.797Z,94.06
2022-11-11T03:54:03.780Z,94.26
2022-11-11T03:56:44.540Z,94.40
2022-11-11T03:59:25.782Z,94.33
2022-11-11T04:02:25.646Z,94.43
2022-11-11T04:05:25.551Z,94.86
2022-11-11T04:08:30.620Z,95.05
2022-11-11T04:11:18.039Z,95.13
2022-11-11T04:14:24.275Z,95.01
2022-11-11T04:17:05.218Z,95.13
2022-11-11T04:20:04.558Z,95.29
2022-11-11T04:22:45.980Z,95.04
2022-11-11T04:25:45.367Z,95.14
2022-11-11T04:28:45.205Z,95.27
2022-11-11T04:31:26.177Z,95.42
2022-11-11T04:34:07.171Z,95.37
2022-11-11T04:36:47.946Z,95.28
2022-11-11T04:39:48.098Z,95.43
2022-11-11T04:42:30.950Z,95.47
2022-11-11T04:45:30.991Z,95.20
2022-11-11T04:48:13.354Z,94.76
2022-11-11T04:50:54.235Z,94.75
2022-11-11T04:53:37.413Z,95.01
2022-11-11T04:56:38.136Z,94.91
2022-11-11T04:59:20.354Z,94.94
2022-11-11T05:02:20.019Z,94.89
2022-11-11T05:05:01.090Z,94.97
2022-11-11T05:08:00.306Z,95.22
2022-11-11T05:10:41.426Z,95.34
2022-11-11T05:13:41.023Z,95.39
2022-11-11T05:16:45.474Z,95.52
2022-11-11T05:19:45.565Z,95.47
2022-11-11T05:22:38.949Z,95.66
2022-11-11T05:25:26.372Z,95.59
2022-11-11T05:28:07.395Z,95.73
2022-11-11T05:30:49.065Z,95.70
2022-11-11T05:33:29.961Z,95.75
2022-11-11T05:36:11.389Z,95.72
2022-11-11T05:38:52.685Z,95.55
2022-11-11T05:41:33.702Z,95.43
2022-11-11T05:44:14.455Z,95.25
2022-11-11T05:46:55.831Z,94.98
2022-11-11T05:49:36.854Z,94.83
2022-11-11T05:52:18.397Z,94.63
2022-11-11T05:54:59.356Z,94.63
2022-11-11T05:57:40.867Z,94.81
2022-11-11T06:00:21.858Z,94.94
2022-11-11T06:03:04.479Z,94.92
2022-11-11T06:05:45.905Z,94.89
2022-11-11T06:08:27.050Z,94.73
2022-11-11T06:11:08.282Z,94.95
2022-11-11T06:13:49.564Z,94.97
2022-11-11T06:16:30.398Z,94.70
2022-11-11T06:19:11.268Z,94.55
2022-11-11T06:21:58.931Z,94.15
2022-11-11T06:25:03.382Z,93.90
2022-11-11T06:27:44.330Z,93.57
2022-11-11T06:30:48.181Z,93.42
2022-11-11T06:33:27.627Z,93.24
2022-11-11T06:36:13.353Z,93.15
2022-11-11T06:38:55.009Z,92.62
2022-11-11T06:41:36.772Z,92.16
2022-11-11T06:44:20.950Z,91.56
2022-11-11T06:47:02.588Z,91.29
2022-11-11T06:49:43.412Z,91.57
2022-11-11T06:52:26.161Z,90.98
2022-11-11T06:55:07.820Z,90.80
2022-11-11T06:58:14.161Z,91.03
2022-11-11T07:00:55.419Z,90.82
2022-11-11T07:03:37.014Z,90.36
2022-11-11T07:06:18.259Z,90.03
2022-11-11T07:09:00.042Z,90.27
2022-11-11T07:11:41.185Z,90.78
2022-11-11T07:14:22.369Z,90.65
2022-11-11T07:17:06.341Z,89.58
2022-11-11T07:19:48.580Z,88.98
2022-11-11T07:22:34.207Z,88.62
2022-11-11T07:25:18.396Z,88.03
2022-11-11T07:28:00.042Z,87.78
2022-11-11T07:30:42.557Z,87.85
2022-11-11T07:33:24.973Z,87.52
2022-11-11T07:36:06.798Z,87.63
2022-11-11T07:38:48.326Z,88.11
2022-11-11T07:41:29.804Z,88.08
2022-11-11T07:44:11.278Z,87.76
2022-11-11T07:46:53.300Z,88.09
2022-11-11T07:49:34.895Z,87.77
2022-11-11T07:52:16.140Z,88.29
2022-11-11T07:54:57.796Z,87.82
2022-11-11T07:57:39.204Z,88.21
2022-11-11T08:00:20.925Z,88.68
2022-11-11T08:03:08.106Z,89.33
2022-11-11T08:05:52.018Z,89.06
2022-11-11T08:08:33.350Z,88.96
2022-11-11T08:11:15.726Z,89.15
2022-11-11T08:13:57.067Z,88.38
2022-11-11T08:16:37.903Z,87.90
2022-11-11T08:19:19.310Z,87.90
2022-11-11T08:22:00.575Z,87.82
2022-11-11T08:25:03.525Z,88.21
2022-11-11T08:27:43.722Z,87.85
2022-11-11T08:30:25.152Z,87.58
2022-11-11T08:36:08.409Z,87.28
2022-11-11T08:38:49.682Z,87.02
2022-11-11T08:41:30.979Z,86.96
2022-11-11T08:44:12.616Z,86.50
2022-11-11T08:46:54.323Z,85.56
2022-11-11T08:49:37.418Z,85.21
2022-11-11T08:52:23.031Z,84.63
2022-11-11T08:55:06.254Z,84.03
2022-11-11T08:58:20.870Z,84.40
2022-11-11T09:01:04.405Z,84.13
2022-11-11T09:03:46.350Z,83.86
2022-11-11T09:06:28.930Z,83.50
2022-11-11T09:09:10.220Z,83.08
2022-11-11T09:11:51.213Z,83.18
2022-11-11T09:14:32.408Z,83.23
2022-11-11T09:17:14.079Z,83.23
2022-11-11T09:19:55.513Z,83.54
2022-11-11T09:22:42.978Z,82.79
2022-11-11T09:25:23.999Z,82.76
2022-11-11T09:28:05.413Z,82.40
2022-11-11T09:30:46.302Z,82.11
2022-11-11T09:33:29.060Z,82.56
2022-11-11T09:36:10.766Z,81.70
2022-11-11T09:38:52.054Z,81.53
2022-11-11T09:41:45.630Z,81.36
2022-11-11T09:45:11.110Z,81.36
2022-11-11T09:48:10.459Z,82.03
2022-11-11T09:50:56.200Z,81.41
2022-11-11T09:53:44.591Z,81.88
2022-11-11T09:56:32.008Z,81.75
2022-11-11T09:59:27.741Z,82.48
2022-11-11T10:02:18.679Z,82.35
2022-11-11T10:05:11.032Z,82.93
2022-11-11T10:08:06.167Z,82.74
2022-11-11T10:10:52.678Z,82.56
2022-11-11T10:13:37.181Z,81.13
2022-11-11T10:16:36.324Z,80.52
2022-11-11T10:19:59.115Z,79.66
2022-11-11T10:22:43.224Z,78.16
2022-11-11T10:25:28.371Z,76.56
2022-11-11T10:28:19.136Z,75.98
2022-11-11T10:31:02.574Z,75.30
2022-11-11T10:34:10.817Z,75.74
2022-11-11T10:36:56.287Z,75.44
2022-11-11T10:40:31.916Z,76.01
2022-11-11T10:43:23.623Z,75.92
2022-11-11T10:46:34.216Z,76.15
2022-11-11T10:49:21.857Z,75.39
2022-11-11T10:52:09.001Z,75.07
2022-11-11T10:55:00.533Z,74.83
2022-11-11T10:58:24.506Z,73.91
2022-11-11T11:01:14.342Z,73.35
2022-11-11T11:04:05.293Z,72.80
2022-11-11T11:07:02.038Z,72.68
2022-11-11T11:09:53.460Z,71.91
2022-11-11T11:12:44.001Z,71.98
2022-11-11T11:15:31.173Z,71.30
2022-11-11T11:18:15.097Z,71.02
2022-11-11T11:21:03.796Z,71.24
2022-11-11T11:23:47.400Z,70.63
2022-11-11T11:26:43.981Z,70.50
2022-11-11T11:29:45.386Z,70.51
2022-11-11T11:32:29.931Z,70.41
2022-11-11T11:35:32.209Z,72.33
2022-11-11T11:38:14.206Z,72.01
2022-11-11T11:40:56.869Z,72.38
2022-11-11T11:43:42.855Z,73.19
2022-11-11T11:46:40.529Z,73.85
2022-11-11T11:49:30.672Z,74.02
2022-11-11T11:52:49.340Z,73.78
2022-11-11T11:55:44.727Z,73.70
2022-11-11T11:58:42.481Z,74.17
2022-11-11T12:01:43.563Z,73.45
2022-11-11T12:04:47.898Z,74.38
2022-11-11T12:07:44.473Z,74.91
2022-11-11T12:10:44.851Z,75.19
2022-11-11T12:13:53.653Z,75.52
2022-11-11T12:16:47.255Z,75.61
2022-11-11T12:19:50.730Z,75.47
2022-11-11T12:23:00.070Z,75.73
2022-11-11T12:26:05.950Z,76.26
2022-11-11T12:29:09.799Z,75.04
2022-11-11T12:32:06.824Z,74.61
2022-11-11T12:35:17.609Z,74.85
2022-11-11T12:38:20.114Z,76.01
2022-11-11T12:41:08.347Z,76.03
2022-11-11T12:44:24.886Z,74.83
2022-11-11T12:47:28.459Z,73.90
2022-11-11T12:50:18.049Z,73.01
2022-11-11T12:53:05.479Z,73.27
2022-11-11T12:56:19.939Z,72.12
2022-11-11T12:59:13.228Z,71.16
2022-11-11T13:02:10.328Z,70.03
2022-11-11T13:05:43.663Z,69.11
2022-11-11T13:08:41.637Z,69.54
2022-11-11T13:11:28.669Z,71.31
2022-11-11T13:14:25.029Z,70.70
2022-11-11T13:17:12.700Z,71.08
2022-11-11T13:19:56.002Z,70.51
2022-11-11T13:22:37.267Z,70.25
2022-11-11T13:25:28.506Z,69.71
2022-11-11T13:28:16.056Z,70.34
2022-11-11T13:31:08.903Z,70.81
2022-11-11T13:33:53.601Z,70.94
2022-11-11T13:36:44.055Z,71.18
2022-11-11T13:39:30.036Z,70.57
2022-11-11T13:42:21.643Z,71.30
2022-11-11T13:45:16.220Z,71.52
2022-11-11T13:48:00.869Z,71.86
2022-11-11T13:50:43.190Z,72.07
2022-11-11T13:53:34.144Z,72.21
2022-11-11T13:56:35.617Z,72.51
2022-11-11T13:59:28.402Z,73.01
2022-11-11T14:02:21.098Z,73.25
2022-11-11T14:05:02.326Z,73.61
2022-11-11T14:07:49.423Z,74.04
2022-11-11T14:10:36.417Z,74.05
2022-11-11T14:13:26.527Z,74.67
2022-11-11T14:16:11.028Z,75.02
2022-11-11T14:18:52.123Z,75.66
2022-11-11T14:21:49.304Z,76.23
2022-11-11T14:24:47.212Z,76.47
2022-11-11T14:27:32.010Z,76.73
2022-11-11T14:30:35.214Z,77.20
2022-11-11T14:33:40.528Z,77.58
2022-11-11T14:36:33.769Z,78.59
2022-11-11T14:39:26.902Z,78.84
2022-11-11T14:42:35.763Z,79.43
2022-11-11T14:45:23.149Z,79.64
2022-11-11T14:48:43.410Z,80.37
2022-11-11T14:51:51.954Z,80.68
2022-11-11T14:54:37.294Z,81.20
2022-11-11T14:57:25.064Z,81.05
2022-11-11T15:00:33.572Z,81.20
2022-11-11T15:03:26.956Z,81.41
2022-11-11T15:06:18.625Z,81.33
2022-11-11T15:09:15.656Z,81.72
2022-11-11T15:12:16.358Z,81.91
2022-11-11T15:15:11.180Z,82.04
2022-11-11T15:18:14.568Z,82.73
2022-11-11T15:20:58.399Z,83.43
2022-11-11T15:23:53.369Z,84.00
2022-11-11T15:27:00.364Z,84.47
2022-11-11T15:29:57.888Z,84.64
2022-11-11T15:32:47.835Z,84.57
2022-11-11T15:35:58.353Z,85.35
2022-11-11T15:38:39.667Z,85.76
2022-11-11T15:41:35.171Z,86.59
2022-11-11T15:44:37.110Z,86.68
2022-11-11T15:47:21.060Z,86.76
2022-11-11T15:50:02.401Z,87.05
2022-11-11T15:52:43.420Z,87.16
2022-11-11T15:55:26.332Z,87.20
2022-11-11T15:58:26.125Z,87.55
2022-11-11T16:01:08.365Z,87.90
2022-11-11T16:03:49.356Z,87.88
2022-11-11T16:06:30.513Z,87.73
2022-11-11T16:09:14.964Z,87.85
2022-11-11T16:11:57.860Z,87.84
2022-11-11T16:14:43.941Z,87.60
2022-11-11T16:17:32.707Z,87.37
2022-11-11T16:20:16.183Z,87.53
2022-11-11T16:23:01.765Z,88.13
2022-11-11T16:25:42.935Z,88.43
2022-11-11T16:28:25.701Z,88.53
2022-11-11T16:31:32.122Z,88.52
2022-11-11T16:34:28.880Z,88.94
2022-11-11T16:37:16.472Z,89.40
2022-11-11T16:39:57.427Z,89.86
2022-11-11T16:42:38.433Z,89.86
2022-11-11T16:45:22.647Z,90.19
2022-11-11T16:48:04.418Z,90.00
2022-11-11T16:51:02.088Z,89.97
2022-11-11T16:54:04.900Z,89.43
2022-11-11T16:56:58.300Z,89.81
2022-11-11T16:59:45.068Z,89.77
2022-11-11T17:02:27.217Z,89.93
2022-11-11T17:05:09.344Z,89.53
2022-11-11T17:07:50.778Z,89.61
2022-11-11T17:10:39.063Z,89.00
2022-11-11T17:13:19.764Z,88.78
2022-11-11T17:16:04.533Z,88.90
2022-11-11T17:18:45.813Z,88.14
2022-11-11T17:21:27.006Z,88.19
2022-11-11T17:24:08.359Z,87.67
2022-11-11T17:26:49.482Z,87.74
2022-11-11T17:29:37.353Z,87.87
2022-11-11T17:32:19.713Z,87.28
2022-11-11T17:35:00.822Z,87.24
2022-11-11T17:37:41.868Z,87.82
2022-11-11T17:40:23.325Z,87.95
2022-11-11T17:43:04.729Z,88.36
2022-11-11T17:45:46.333Z,88.73
2022-11-11T17:48:27.944Z,88.48
2022-11-11T17:51:10.034Z,88.82
2022-11-11T17:53:52.503Z,88.67
2022-11-11T17:56:33.909Z,88.53
2022-11-11T17:59:15.345Z,88.17
2022-11-11T18:01:57.210Z,87.87
2022-11-11T18:04:38.847Z,88.04
2022-11-11T18:07:20.555Z,88.10
2022-11-11T18:10:02.691Z,88.05
2022-11-11T18:12:43.941Z,87.97
2022-11-11T18:15:25.380Z,87.17
2022-11-11T18:18:07.415Z,87.26
2022-11-11T18:20:49.215Z,87.78
2022-11-11T18:23:35.605Z,87.57
2022-11-11T18:26:17.080Z,87.36
2022-11-11T18:28:58.578Z,87.05
2022-11-11T18:31:40.093Z,86.47
2022-11-11T18:34:21.858Z,86.57
2022-11-11T18:37:03.245Z,86.13
2022-11-11T18:39:45.029Z,86.00
2022-11-11T18:42:26.293Z,85.78
2022-11-11T18:45:07.619Z,85.36
2022-11-11T18:47:51.143Z,85.42
2022-11-11T18:50:33.584Z,85.66
2022-11-11T18:53:15.364Z,85.44
2022-11-11T18:55:56.521Z,85.02
2022-11-11T18:58:39.418Z,84.82
2022-11-11T19:01:29.473Z,84.62
2022-11-11T19:04:11.196Z,84.77
2022-11-11T19:06:52.834Z,85.49
2022-11-11T19:09:34.312Z,85.56
2022-11-11T19:12:15.287Z,85.78
2022-11-11T19:14:56.566Z,85.81
2022-11-11T19:17:38.958Z,85.94
2022-11-11T19:20:20.691Z,85.39
2022-11-11T19:23:02.072Z,85.25
2022-11-11T19:25:43.921Z,85.10
2022-11-11T19:28:26.224Z,85.16
2022-11-11T19:31:16.679Z,85.04
2022-11-11T19:33:58.958Z,85.40
2022-11-11T19:36:40.273Z,85.49
2022-11-11T19:39:22.123Z,85.38
2022-11-11T19:42:03.824Z,85.70
2022-11-11T19:44:44.884Z,86.13
2022-11-11T19:47:26.922Z,86.17
2022-11-11T19:50:10.123Z,86.16
2022-11-11T19:52:52.031Z,86.42
2022-11-11T19:55:33.491Z,86.57
2022-11-11T19:58:14.796Z,86.83
2022-11-11T20:00:57.000Z,87.00
2022-11-11T20:03:40.277Z,87.17
2022-11-11T20:06:31.324Z,87.64
2022-11-11T20:09:14.783Z,87.99
2022-11-11T20:11:56.510Z,88.15
2022-11-11T20:14:37.728Z,87.95
2022-11-11T20:17:19.411Z,87.73
2022-11-11T20:20:00.511Z,87.73
2022-11-11T20:22:42.095Z,88.05
2022-11-11T20:25:23.980Z,88.87
2022-11-11T20:28:05.405Z,88.93
2022-11-11T20:30:46.380Z,88.67
2022-11-11T20:33:28.113Z,88.69
2022-11-11T20:36:12.578Z,88.65
2022-11-11T20:38:54.359Z,88.40
2022-11-11T20:41:36.257Z,88.49
2022-11-11T20:44:17.669Z,88.80
2022-11-11T20:46:59.176Z,88.94
2022-11-11T20:49:43.650Z,89.05
2022-11-11T20:52:24.928Z,88.96
2022-11-11T20:55:06.997Z,89.36
2022-11-11T20:57:48.529Z,89.29
2022-11-11T21:00:30.340Z,89.18
2022-11-11T21:03:11.906Z,89.67
2022-11-11T21:05:53.460Z,89.41
2022-11-11T21:08:36.514Z,90.35
2022-11-11T21:11:20.194Z,90.38
2022-11-11T21:14:02.390Z,90.10
2022-11-11T21:16:43.880Z,89.83
2022-11-11T21:19:25.092Z,89.62
2022-11-11T21:22:10.170Z,89.65
2022-11-11T21:24:51.694Z,89.68
2022-11-11T21:27:34.232Z,89.63
2022-11-11T21:30:16.125Z,90.00
2022-11-11T21:32:57.902Z,90.46
2022-11-11T21:35:39.188Z,90.38
2022-11-11T21:38:20.698Z,90.50
2022-11-11T21:41:13.875Z,90.66
2022-11-11T21:43:55.762Z,91.26
2022-11-11T21:46:38.467Z,91.79
2022-11-11T21:49:19.778Z,91.50
2022-11-11T21:52:00.540Z,91.07
2022-11-11T21:54:41.514Z,90.85
2022-11-11T21:57:22.723Z,90.88
2022-11-11T22:00:04.479Z,90.88
2022-11-11T22:02:45.780Z,90.66
2022-11-11T22:05:26.868Z,91.03
2022-11-11T22:08:07.681Z,91.09
2022-11-11T22:10:48.537Z,91.37
2022-11-11T22:13:31.226Z,91.18
2022-11-11T22:16:17.200Z,91.30
2022-11-11T22:19:01.588Z,91.50
2022-11-11T22:21:43.920Z,91.80
2022-11-11T22:24:25.057Z,92.05
2022-11-11T22:27:05.913Z,91.99
2022-11-11T22:29:46.805Z,91.62
2022-11-11T22:32:27.785Z,91.26
2022-11-11T22:35:08.840Z,90.91
2022-11-11T22:37:49.799Z,90.51
2022-11-11T22:40:30.634Z,90.78
2022-11-11T22:43:12.156Z,91.31
2022-11-11T22:45:57.984Z,91.29
2022-11-11T22:48:40.064Z,90.83
2022-11-11T22:51:22.746Z,90.45
2022-11-11T22:54:06.618Z,90.28
2022-11-11T22:56:48.571Z,90.32
2022-11-11T22:59:30.236Z,90.07
2022-11-11T23:02:11.334Z,90.19
2022-11-11T23:04:52.325Z,89.77
2022-11-11T23:07:33.209Z,89.71
2022-11-11T23:10:14.326Z,89.21
2022-11-11T23:12:58.708Z,89.30
2022-11-11T23:15:40.128Z,89.02
2022-11-11T23:18:22.632Z,89.14
2022-11-11T23:21:11.248Z,89.36
2022-11-11T23:23:52.643Z,89.23
2022-11-11T23:26:33.902Z,89.18
2022-11-11T23:29:14.940Z,89.32
2022-11-11T23:31:56.375Z,89.05
2022-11-11T23:34:37.470Z,88.37
2022-11-11T23:37:18.741Z,88.32
2022-11-11T23:39:59.961Z,88.24
2022-11-11T23:42:41.271Z,88.09
2022-11-11T23:45:22.462Z,88.05
2022-11-11T23:48:03.681Z,88.50
2022-11-11T23:50:45.205Z,88.44
2022-11-11T23:53:26.805Z,88.33
2022-11-11T23:56:07.847Z,88.27
2022-11-11T23:58:49.140Z,88.00
